SHT4A EGCC-EGLL
Flight info
| Callsign | SHT4A |
|---|---|
| Flight time | 0h 32m |
| Altitude | 19000 |
| Route | SANBA N859 HON |
| Aircraft | A320/M-SDE3FGHIRWY/LB1 |
Departure
| Time | 2026-05-07 15:40 |
|---|---|
| Airport | Manchester Airport (EGCC) |
Arrival
| Time | 2026-05-07 16:12 |
|---|---|
| Airport | London Heathrow Airport (EGLL) |
| Time | Latitude | Longitude | Altitude | Speed | Heading |
|---|---|---|---|---|---|
| 2026-05-07 15:10 | 53.35979 | -2.27519 | 255 ft | 0 kts | 96° |
| 2026-05-07 15:30 | 53.35982 | -2.27553 | 255 ft | 4 kts | 96° |
| 2026-05-07 15:30 | 53.35984 | -2.27591 | 255 ft | 4 kts | 108° |
| 2026-05-07 15:30 | 53.35998 | -2.27619 | 255 ft | 4 kts | 167° |
| 2026-05-07 15:31 | 53.36025 | -2.27622 | 255 ft | 4 kts | 185° |
| 2026-05-07 15:31 | 53.36030 | -2.27621 | 255 ft | 4 kts | 186° |
| 2026-05-07 15:31 | 53.36004 | -2.27626 | 255 ft | 3 kts | 185° |
| 2026-05-07 15:31 | 53.36000 | -2.27626 | 255 ft | 0 kts | 185° |
| 2026-05-07 15:33 | 53.35999 | -2.27626 | 255 ft | 1 kts | 185° |
| 2026-05-07 15:33 | 53.35987 | -2.27628 | 255 ft | 3 kts | 185° |
| 2026-05-07 15:34 | 53.35970 | -2.27631 | 255 ft | 4 kts | 185° |
| 2026-05-07 15:34 | 53.35931 | -2.27632 | 255 ft | 7 kts | 180° |
| 2026-05-07 15:34 | 53.35874 | -2.27633 | 255 ft | 9 kts | 181° |
| 2026-05-07 15:34 | 53.35815 | -2.27640 | 255 ft | 4 kts | 189° |
| 2026-05-07 15:35 | 53.35761 | -2.27653 | 251 ft | 12 kts | 182° |
| 2026-05-07 15:35 | 53.35666 | -2.27585 | 246 ft | 17 kts | 142° |
| 2026-05-07 15:35 | 53.35608 | -2.27505 | 245 ft | 2 kts | 141° |
| 2026-05-07 15:35 | 53.35588 | -2.27478 | 245 ft | 5 kts | 141° |
| 2026-05-07 15:36 | 53.35558 | -2.27438 | 246 ft | 5 kts | 141° |
| 2026-05-07 15:36 | 53.35533 | -2.27404 | 247 ft | 4 kts | 141° |
| 2026-05-07 15:36 | 53.35513 | -2.27378 | 248 ft | 4 kts | 141° |
| 2026-05-07 15:36 | 53.35491 | -2.27349 | 248 ft | 5 kts | 141° |
| 2026-05-07 15:37 | 53.35460 | -2.27307 | 248 ft | 8 kts | 141° |
| 2026-05-07 15:37 | 53.35406 | -2.27236 | 246 ft | 12 kts | 142° |
| 2026-05-07 15:37 | 53.35320 | -2.27188 | 243 ft | 16 kts | 187° |
| 2026-05-07 15:37 | 53.35185 | -2.27233 | 233 ft | 24 kts | 194° |
| 2026-05-07 15:38 | 53.35079 | -2.27277 | 227 ft | 17 kts | 193° |
| 2026-05-07 15:38 | 53.35002 | -2.27333 | 225 ft | 11 kts | 230° |
| 2026-05-07 15:38 | 53.34998 | -2.27341 | 225 ft | 0 kts | 230° |
| 2026-05-07 15:38 | 53.34997 | -2.27342 | 225 ft | 1 kts | 230° |
| 2026-05-07 15:39 | 53.34911 | -2.27520 | 223 ft | 53 kts | 231° |
| 2026-05-07 15:39 | 53.34543 | -2.28271 | 229 ft | 110 kts | 231° |
| 2026-05-07 15:39 | 53.33975 | -2.29457 | 228 ft | 149 kts | 231° |
| 2026-05-07 15:39 | 53.33261 | -2.30898 | 460 ft | 164 kts | 229° |
| 2026-05-07 15:40 | 53.32545 | -2.32402 | 1019 ft | 165 kts | 229° |
| 2026-05-07 15:40 | 53.31828 | -2.33928 | 1521 ft | 172 kts | 229° |
| 2026-05-07 15:40 | 53.31046 | -2.35618 | 1746 ft | 196 kts | 229° |
| 2026-05-07 15:40 | 53.30171 | -2.37524 | 2056 ft | 218 kts | 229° |
| 2026-05-07 15:41 | 53.29192 | -2.39640 | 2473 ft | 242 kts | 230° |
| 2026-05-07 15:41 | 53.27999 | -2.41672 | 3266 ft | 247 kts | 211° |
| 2026-05-07 15:41 | 53.26404 | -2.42685 | 4143 ft | 249 kts | 186° |
| 2026-05-07 15:41 | 53.24704 | -2.42357 | 5029 ft | 254 kts | 161° |
| 2026-05-07 15:42 | 53.23065 | -2.41207 | 5934 ft | 257 kts | 159° |
| 2026-05-07 15:42 | 53.21413 | -2.40005 | 6795 ft | 261 kts | 158° |
| 2026-05-07 15:42 | 53.19765 | -2.38683 | 7612 ft | 265 kts | 155° |
| 2026-05-07 15:42 | 53.18120 | -2.37244 | 8455 ft | 269 kts | 154° |
| 2026-05-07 15:43 | 53.16461 | -2.35752 | 9295 ft | 273 kts | 154° |
| 2026-05-07 15:43 | 53.14783 | -2.34238 | 10093 ft | 276 kts | 154° |
| 2026-05-07 15:43 | 53.13042 | -2.32683 | 10479 ft | 295 kts | 155° |
| 2026-05-07 15:43 | 53.11157 | -2.31022 | 10667 ft | 318 kts | 155° |
| 2026-05-07 15:44 | 53.09149 | -2.29265 | 11040 ft | 331 kts | 154° |
| 2026-05-07 15:44 | 53.07092 | -2.27470 | 11670 ft | 336 kts | 154° |
| 2026-05-07 15:44 | 53.05011 | -2.25660 | 12345 ft | 339 kts | 154° |
| 2026-05-07 15:44 | 53.02912 | -2.23833 | 13018 ft | 342 kts | 154° |
| 2026-05-07 15:45 | 53.00789 | -2.21983 | 13719 ft | 346 kts | 154° |
| 2026-05-07 15:45 | 52.98646 | -2.20116 | 14341 ft | 349 kts | 154° |
| 2026-05-07 15:45 | 52.96508 | -2.18259 | 14892 ft | 353 kts | 154° |
| 2026-05-07 15:45 | 52.94318 | -2.16364 | 15453 ft | 357 kts | 154° |
| 2026-05-07 15:46 | 52.89854 | -2.12506 | 16517 ft | 365 kts | 154° |
| 2026-05-07 15:46 | 52.87588 | -2.10550 | 17057 ft | 369 kts | 154° |
| 2026-05-07 15:46 | 52.85298 | -2.08572 | 17603 ft | 373 kts | 154° |
| 2026-05-07 15:47 | 52.82983 | -2.06573 | 18140 ft | 377 kts | 154° |
| 2026-05-07 15:47 | 52.80639 | -2.04558 | 18642 ft | 382 kts | 154° |
| 2026-05-07 15:47 | 52.78273 | -2.02533 | 18966 ft | 384 kts | 154° |
| 2026-05-07 15:47 | 52.75887 | -2.00496 | 19033 ft | 392 kts | 154° |
| 2026-05-07 15:48 | 52.73416 | -1.98389 | 19055 ft | 407 kts | 154° |
| 2026-05-07 15:48 | 52.70882 | -1.96223 | 19056 ft | 411 kts | 154° |
| 2026-05-07 15:48 | 52.68369 | -1.94074 | 19051 ft | 413 kts | 154° |
| 2026-05-07 15:48 | 52.65817 | -1.91892 | 19053 ft | 413 kts | 154° |
| 2026-05-07 15:49 | 52.63266 | -1.89712 | 19046 ft | 413 kts | 154° |
| 2026-05-07 15:49 | 52.60710 | -1.87537 | 19044 ft | 413 kts | 154° |
| 2026-05-07 15:49 | 52.58157 | -1.85369 | 19033 ft | 413 kts | 154° |
| 2026-05-07 15:49 | 52.55603 | -1.83200 | 19036 ft | 413 kts | 154° |
| 2026-05-07 15:50 | 52.53048 | -1.81033 | 19033 ft | 413 kts | 154° |
| 2026-05-07 15:50 | 52.50489 | -1.78868 | 19028 ft | 413 kts | 154° |
| 2026-05-07 15:50 | 52.47933 | -1.76712 | 19017 ft | 413 kts | 155° |
| 2026-05-07 15:50 | 52.45375 | -1.74557 | 19019 ft | 413 kts | 154° |
| 2026-05-07 15:51 | 52.42851 | -1.72428 | 19022 ft | 413 kts | 154° |
| 2026-05-07 15:51 | 52.40291 | -1.70270 | 19019 ft | 413 kts | 154° |
| 2026-05-07 15:51 | 52.37732 | -1.68112 | 19027 ft | 414 kts | 154° |
| 2026-05-07 15:51 | 52.35267 | -1.65675 | 19021 ft | 416 kts | 146° |
| 2026-05-07 15:52 | 52.33033 | -1.62664 | 19021 ft | 417 kts | 141° |
| 2026-05-07 15:52 | 52.30840 | -1.59553 | 19033 ft | 417 kts | 141° |
| 2026-05-07 15:52 | 52.28646 | -1.56450 | 19075 ft | 417 kts | 141° |
| 2026-05-07 15:52 | 52.26446 | -1.53352 | 19065 ft | 417 kts | 141° |
| 2026-05-07 15:53 | 52.24248 | -1.50269 | 18987 ft | 410 kts | 141° |
| 2026-05-07 15:53 | 52.22125 | -1.47285 | 18735 ft | 397 kts | 141° |
| 2026-05-07 15:53 | 52.20058 | -1.44379 | 18494 ft | 387 kts | 141° |
| 2026-05-07 15:53 | 52.18030 | -1.41535 | 18245 ft | 382 kts | 141° |
| 2026-05-07 15:54 | 52.16019 | -1.38728 | 17883 ft | 378 kts | 141° |
| 2026-05-07 15:54 | 52.14055 | -1.35992 | 17361 ft | 374 kts | 141° |
| 2026-05-07 15:54 | 52.12087 | -1.33257 | 16838 ft | 370 kts | 141° |
| 2026-05-07 15:54 | 52.10146 | -1.30556 | 16523 ft | 360 kts | 141° |
| 2026-05-07 15:55 | 52.08282 | -1.27959 | 16387 ft | 346 kts | 141° |
| 2026-05-07 15:55 | 52.06485 | -1.25458 | 16254 ft | 334 kts | 141° |
| 2026-05-07 15:55 | 52.04750 | -1.23049 | 16121 ft | 322 kts | 141° |
| 2026-05-07 15:55 | 52.03072 | -1.20726 | 15955 ft | 312 kts | 142° |
| 2026-05-07 15:56 | 52.01443 | -1.18474 | 15826 ft | 303 kts | 142° |
| 2026-05-07 15:56 | 51.99861 | -1.16290 | 15703 ft | 294 kts | 142° |
| 2026-05-07 15:56 | 51.98320 | -1.14166 | 15571 ft | 286 kts | 142° |
| 2026-05-07 15:56 | 51.96824 | -1.12103 | 15444 ft | 278 kts | 142° |
| 2026-05-07 15:57 | 51.95370 | -1.10097 | 15306 ft | 271 kts | 142° |
| 2026-05-07 15:57 | 51.93941 | -1.08126 | 15084 ft | 268 kts | 142° |
| 2026-05-07 15:57 | 51.92526 | -1.06183 | 14824 ft | 266 kts | 142° |
| 2026-05-07 15:57 | 51.91120 | -1.04254 | 14574 ft | 264 kts | 142° |
| 2026-05-07 15:58 | 51.89721 | -1.02335 | 14322 ft | 262 kts | 142° |
| 2026-05-07 15:58 | 51.88332 | -1.00425 | 14069 ft | 261 kts | 142° |
| 2026-05-07 15:58 | 51.86972 | -0.98556 | 13814 ft | 259 kts | 142° |
| 2026-05-07 15:58 | 51.85645 | -0.96590 | 13519 ft | 259 kts | 133° |
| 2026-05-07 15:59 | 51.84646 | -0.94162 | 13203 ft | 261 kts | 118° |
| 2026-05-07 15:59 | 51.83849 | -0.91523 | 12889 ft | 261 kts | 118° |
| 2026-05-07 15:59 | 51.83051 | -0.88896 | 12594 ft | 260 kts | 118° |
| 2026-05-07 15:59 | 51.82254 | -0.86274 | 12311 ft | 259 kts | 118° |
| 2026-05-07 16:00 | 51.81458 | -0.83666 | 12031 ft | 258 kts | 118° |
| 2026-05-07 16:00 | 51.80662 | -0.81072 | 11749 ft | 257 kts | 118° |
| 2026-05-07 16:00 | 51.79868 | -0.78493 | 11458 ft | 256 kts | 118° |
| 2026-05-07 16:00 | 51.79077 | -0.75922 | 11179 ft | 255 kts | 118° |
| 2026-05-07 16:01 | 51.78288 | -0.73360 | 10914 ft | 254 kts | 118° |
| 2026-05-07 16:01 | 51.77500 | -0.70799 | 10656 ft | 254 kts | 118° |
| 2026-05-07 16:01 | 51.76717 | -0.68258 | 10392 ft | 253 kts | 118° |
| 2026-05-07 16:01 | 51.75931 | -0.65716 | 10141 ft | 252 kts | 118° |
| 2026-05-07 16:02 | 51.75160 | -0.63217 | 9904 ft | 251 kts | 118° |
| 2026-05-07 16:02 | 51.74383 | -0.60697 | 9635 ft | 250 kts | 118° |
| 2026-05-07 16:02 | 51.73592 | -0.58206 | 9346 ft | 248 kts | 124° |
| 2026-05-07 16:02 | 51.72447 | -0.56180 | 9075 ft | 244 kts | 146° |
| 2026-05-07 16:03 | 51.70935 | -0.55034 | 8777 ft | 240 kts | 168° |
| 2026-05-07 16:03 | 51.69278 | -0.54790 | 8458 ft | 239 kts | 179° |
| 2026-05-07 16:03 | 51.67612 | -0.54707 | 8177 ft | 239 kts | 179° |
| 2026-05-07 16:03 | 51.65950 | -0.54614 | 7888 ft | 239 kts | 178° |
| 2026-05-07 16:04 | 51.64293 | -0.54521 | 7604 ft | 238 kts | 180° |
| 2026-05-07 16:04 | 51.62679 | -0.54963 | 7312 ft | 236 kts | 203° |
| 2026-05-07 16:04 | 51.61326 | -0.56420 | 7101 ft | 233 kts | 227° |
| 2026-05-07 16:04 | 51.60453 | -0.58625 | 7058 ft | 237 kts | 250° |
| 2026-05-07 16:05 | 51.60146 | -0.61220 | 6826 ft | 237 kts | 264° |
| 2026-05-07 16:05 | 51.60012 | -0.63865 | 6544 ft | 237 kts | 264° |
| 2026-05-07 16:05 | 51.59873 | -0.66470 | 6269 ft | 236 kts | 264° |
| 2026-05-07 16:05 | 51.59716 | -0.69104 | 5959 ft | 236 kts | 263° |
| 2026-05-07 16:06 | 51.59553 | -0.71697 | 5806 ft | 229 kts | 263° |
| 2026-05-07 16:06 | 51.59395 | -0.74208 | 5613 ft | 224 kts | 263° |
| 2026-05-07 16:06 | 51.59122 | -0.76649 | 5335 ft | 221 kts | 246° |
| 2026-05-07 16:06 | 51.58223 | -0.78602 | 5065 ft | 219 kts | 217° |
| 2026-05-07 16:07 | 51.56851 | -0.79582 | 4795 ft | 218 kts | 188° |
| 2026-05-07 16:07 | 51.55334 | -0.79611 | 4443 ft | 219 kts | 178° |
| 2026-05-07 16:07 | 51.53807 | -0.79522 | 4096 ft | 220 kts | 178° |
| 2026-05-07 16:07 | 51.52277 | -0.79426 | 3809 ft | 219 kts | 178° |
| 2026-05-07 16:08 | 51.50779 | -0.79125 | 3662 ft | 218 kts | 163° |
| 2026-05-07 16:08 | 51.49419 | -0.78075 | 3519 ft | 217 kts | 144° |
| 2026-05-07 16:08 | 51.48372 | -0.76346 | 3387 ft | 219 kts | 124° |
| 2026-05-07 16:08 | 51.47746 | -0.74115 | 3219 ft | 221 kts | 104° |
| 2026-05-07 16:09 | 51.47623 | -0.71659 | 2959 ft | 222 kts | 90° |
| 2026-05-07 16:09 | 51.47642 | -0.69192 | 2668 ft | 221 kts | 90° |
| 2026-05-07 16:09 | 51.47660 | -0.66733 | 2375 ft | 220 kts | 90° |
| 2026-05-07 16:09 | 51.47674 | -0.64387 | 2097 ft | 204 kts | 90° |
| 2026-05-07 16:10 | 51.47686 | -0.62204 | 1814 ft | 188 kts | 91° |
| 2026-05-07 16:10 | 51.47696 | -0.60188 | 1572 ft | 172 kts | 91° |
| 2026-05-07 16:10 | 51.47705 | -0.58344 | 1359 ft | 157 kts | 91° |
| 2026-05-07 16:10 | 51.47713 | -0.56647 | 1137 ft | 149 kts | 91° |
| 2026-05-07 16:11 | 51.47720 | -0.55006 | 933 ft | 145 kts | 90° |
| 2026-05-07 16:11 | 51.47727 | -0.53406 | 738 ft | 141 kts | 91° |
| 2026-05-07 16:11 | 51.47734 | -0.51855 | 543 ft | 137 kts | 90° |
| 2026-05-07 16:11 | 51.47743 | -0.50340 | 339 ft | 135 kts | 89° |
| 2026-05-07 16:12 | 51.47754 | -0.48840 | 159 ft | 134 kts | 89° |
| 2026-05-07 16:12 | 51.47762 | -0.47410 | 84 ft | 112 kts | 90° |
| 2026-05-07 16:12 | 51.47762 | -0.46780 | 89 ft | 67 kts | 90° |
| 2026-05-07 16:12 | 51.47757 | -0.46259 | 87 ft | 25 kts | 101° |
| 2026-05-07 16:13 | 51.47651 | -0.46084 | 89 ft | 13 kts | 147° |
| 2026-05-07 16:13 | 51.47586 | -0.46136 | 87 ft | 12 kts | 251° |
| 2026-05-07 16:13 | 51.47583 | -0.46278 | 90 ft | 13 kts | 279° |
| 2026-05-07 16:13 | 51.47588 | -0.46442 | 86 ft | 16 kts | 270° |
| 2026-05-07 16:14 | 51.47589 | -0.46523 | 86 ft | 3 kts | 271° |
| 2026-05-07 16:14 | 51.47589 | -0.46570 | 86 ft | 5 kts | 271° |
| 2026-05-07 16:14 | 51.47590 | -0.46642 | 86 ft | 7 kts | 271° |
| 2026-05-07 16:14 | 51.47592 | -0.46737 | 86 ft | 9 kts | 271° |
| 2026-05-07 16:15 | 51.47587 | -0.46852 | 86 ft | 11 kts | 257° |
| 2026-05-07 16:15 | 51.47580 | -0.46988 | 90 ft | 13 kts | 269° |
| 2026-05-07 16:15 | 51.47581 | -0.47150 | 90 ft | 16 kts | 272° |
| 2026-05-07 16:15 | 51.47584 | -0.47336 | 89 ft | 18 kts | 271° |
| 2026-05-07 16:16 | 51.47580 | -0.47545 | 87 ft | 20 kts | 268° |
| 2026-05-07 16:16 | 51.47577 | -0.47715 | 86 ft | 10 kts | 270° |
| 2026-05-07 16:16 | 51.47577 | -0.47832 | 86 ft | 12 kts | 270° |
| 2026-05-07 16:16 | 51.47576 | -0.47972 | 86 ft | 14 kts | 269° |
| 2026-05-07 16:17 | 51.47577 | -0.48135 | 86 ft | 16 kts | 270° |
| 2026-05-07 16:17 | 51.47577 | -0.48308 | 86 ft | 5 kts | 270° |
| 2026-05-07 16:17 | 51.47577 | -0.48378 | 86 ft | 7 kts | 270° |
| 2026-05-07 16:17 | 51.47560 | -0.48458 | 89 ft | 9 kts | 221° |
| 2026-05-07 16:18 | 51.47492 | -0.48476 | 86 ft | 11 kts | 179° |
| 2026-05-07 16:18 | 51.47406 | -0.48474 | 86 ft | 14 kts | 179° |
| 2026-05-07 16:18 | 51.47302 | -0.48471 | 88 ft | 16 kts | 179° |
| 2026-05-07 16:18 | 51.47251 | -0.48469 | 87 ft | 3 kts | 178° |
| 2026-05-07 16:19 | 51.47219 | -0.48468 | 86 ft | 6 kts | 180° |
| 2026-05-07 16:19 | 51.47189 | -0.48497 | 87 ft | 6 kts | 257° |
| 2026-05-07 16:19 | 51.47186 | -0.48540 | 86 ft | 1 kts | 265° |
| 2026-05-07 16:19 | 51.47187 | -0.48562 | 86 ft | 3 kts | 274° |
| 2026-05-07 16:20 | 51.47188 | -0.48582 | 86 ft | 1 kts | 270° |
| 2026-05-07 16:20 | 51.47188 | -0.48589 | 86 ft | 0 kts | 270° |